Time,TemperatureF,DewpointF,PressureIn,WindDirection,WindDirectionDegrees,WindSpeedMPH,WindSpeedGustMPH,Humidity,HourlyPrecipIn,Conditions,Clouds,dailyrainin,SoftwareType,DateUTC
2013-04-09 00:00:00,50.1,46.1,29.90,NNW,333,0.0,3.0,86,0.00,,,0.00,VWS V14.01,2013-04-09 04:00:00,
2013-04-09 00:10:00,50.0,46.0,29.90,NNW,333,0.0,2.0,86,0.00,,,0.00,VWS V14.01,2013-04-09 04:10:00,
2013-04-09 00:20:00,49.7,46.0,29.90,NW,309,1.0,4.0,87,0.00,,,0.00,VWS V14.01,2013-04-09 04:20:00,
2013-04-09 00:30:00,49.6,45.9,29.90,NE,53,1.0,3.0,87,0.00,,,0.00,VWS V14.01,2013-04-09 04:30:00,
2013-04-09 00:40:00,49.3,45.9,29.90,NE,40,0.0,3.0,88,0.00,,,0.00,VWS V14.01,2013-04-09 04:40:00,
2013-04-09 00:50:00,49.0,45.6,29.89,ENE,57,0.0,4.0,88,0.00,,,0.00,VWS V14.01,2013-04-09 04:50:00,
2013-04-09 01:00:00,48.7,45.3,29.89,NE,55,1.0,3.0,88,0.00,,,0.00,VWS V14.01,2013-04-09 05:00:00,
2013-04-09 01:10:00,48.7,45.6,29.89,ENE,78,1.0,3.0,89,0.00,,,0.00,VWS V14.01,2013-04-09 05:10:00,
2013-04-09 01:20:00,48.6,45.8,29.88,NE,42,0.0,2.0,90,0.00,,,0.00,VWS V14.01,2013-04-09 05:20:00,
2013-04-09 01:30:00,48.6,46.1,29.87,NNE,15,1.0,3.0,91,0.00,,,0.00,VWS V14.01,2013-04-09 05:30:00,
2013-04-09 01:40:00,48.6,46.1,29.87,NNW,342,1.0,3.0,91,0.00,,,0.00,VWS V14.01,2013-04-09 05:40:00,
2013-04-09 01:50:00,48.6,46.1,29.86,NNE,25,0.0,5.0,91,0.00,,,0.00,VWS V14.01,2013-04-09 05:50:00,
2013-04-09 02:00:00,48.7,46.2,29.85,NNE,25,2.0,3.0,91,0.00,,,0.00,VWS V14.01,2013-04-09 06:00:00,
2013-04-09 02:10:00,48.7,46.2,29.85,NNE,32,0.0,4.0,91,0.00,,,0.00,VWS V14.01,2013-04-09 06:10:00,
2013-04-09 02:20:00,48.7,46.2,29.84,NNE,32,0.0,2.0,91,0.00,,,0.00,VWS V14.01,2013-04-09 06:20:00,
2013-04-09 02:30:00,48.7,46.2,29.84,NNE,32,1.0,2.0,91,0.00,,,0.00,VWS V14.01,2013-04-09 06:30:00,
2013-04-09 02:40:00,48.7,46.2,29.84,NNE,32,0.0,2.0,91,0.00,,,0.00,VWS V14.01,2013-04-09 06:40:00,
2013-04-09 02:50:00,48.7,46.2,29.84,NNE,32,1.0,3.0,91,0.00,,,0.00,VWS V14.01,2013-04-09 06:50:00,
2013-04-09 03:00:00,48.7,46.2,29.83,NNE,32,1.0,2.0,91,0.00,,,0.00,VWS V14.01,2013-04-09 07:00:00,
2013-04-09 03:10:00,48.7,46.2,29.83,NNE,32,0.0,2.0,91,0.00,,,0.00,VWS V14.01,2013-04-09 07:10:00,
2013-04-09 03:20:00,48.7,46.2,29.83,NNE,32,0.0,2.0,91,0.00,,,0.00,VWS V14.01,2013-04-09 07:20:00,
2013-04-09 03:30:00,48.7,46.2,29.82,NNE,32,2.0,5.0,91,0.00,,,0.00,VWS V14.01,2013-04-09 07:30:00,
2013-04-09 03:40:00,48.8,46.6,29.82,NNE,32,1.0,3.0,92,0.00,,,0.00,VWS V14.01,2013-04-09 07:40:00,
2013-04-09 03:50:00,49.0,46.8,29.82,NNE,32,0.0,2.0,92,0.00,,,0.00,VWS V14.01,2013-04-09 07:50:00,
2013-04-09 04:00:00,49.0,46.8,29.81,NNE,32,0.0,2.0,92,0.00,,,0.00,VWS V14.01,2013-04-09 08:00:00,
2013-04-09 04:10:00,48.9,46.7,29.81,NNE,32,0.0,2.0,92,0.00,,,0.00,VWS V14.01,2013-04-09 08:10:00,
2013-04-09 04:20:00,48.8,46.6,29.81,NNE,32,0.0,1.0,92,0.00,,,0.00,VWS V14.01,2013-04-09 08:20:00,
2013-04-09 04:30:00,48.8,46.6,29.80,NNE,32,0.0,2.0,92,0.00,,,0.00,VWS V14.01,2013-04-09 08:30:00,
2013-04-09 04:40:00,48.7,46.5,29.80,NNE,32,0.0,2.0,92,0.00,,,0.00,VWS V14.01,2013-04-09 08:40:00,
2013-04-09 04:50:00,48.7,46.8,29.80,NNE,32,1.0,2.0,93,0.00,,,0.00,VWS V14.01,2013-04-09 08:50:00,
2013-04-09 05:00:00,48.8,46.9,29.80,NNE,32,0.0,2.0,93,0.00,,,0.00,VWS V14.01,2013-04-09 09:00:00,
2013-04-09 05:10:00,48.9,47.0,29.80,NNE,32,1.0,2.0,93,0.00,,,0.00,VWS V14.01,2013-04-09 09:10:00,
2013-04-09 05:20:00,49.1,47.2,29.80,NNE,32,0.0,4.0,93,0.00,,,0.00,VWS V14.01,2013-04-09 09:20:00,
2013-04-09 05:30:00,49.2,47.3,29.80,SW,227,1.0,3.0,93,0.00,,,0.00,VWS V14.01,2013-04-09 09:30:00,
2013-04-09 05:40:00,49.3,47.1,29.80,West,265,1.0,3.0,92,0.00,,,0.00,VWS V14.01,2013-04-09 09:40:00,
2013-04-09 05:50:00,49.4,47.2,29.79,SW,225,1.0,3.0,92,0.00,,,0.00,VWS V14.01,2013-04-09 09:50:00,
2013-04-09 06:00:00,49.4,47.2,29.80,WSW,240,1.0,3.0,92,0.00,,,0.00,VWS V14.01,2013-04-09 10:00:00,
2013-04-09 06:10:00,49.4,47.2,29.80,SW,226,0.0,3.0,92,0.00,,,0.00,VWS V14.01,2013-04-09 10:10:00,
2013-04-09 06:20:00,49.3,47.1,29.81,SSW,209,0.0,4.0,92,0.00,,,0.00,VWS V14.01,2013-04-09 10:20:00,
2013-04-09 06:30:00,49.4,47.2,29.81,SW,219,1.0,3.0,92,0.00,,,0.00,VWS V14.01,2013-04-09 10:30:00,
2013-04-09 06:40:00,49.3,47.1,29.81,WSW,252,0.0,2.0,92,0.00,,,0.00,VWS V14.01,2013-04-09 10:40:00,
2013-04-09 06:50:00,49.2,47.0,29.81,WSW,252,0.0,2.0,92,0.00,,,0.00,VWS V14.01,2013-04-09 10:50:00,
2013-04-09 07:00:00,49.1,46.9,29.81,WSW,252,0.0,2.0,92,0.00,,,0.00,VWS V14.01,2013-04-09 11:00:00,
2013-04-09 07:10:00,49.1,46.9,29.81,SW,225,0.0,1.0,92,0.00,,,0.00,VWS V14.01,2013-04-09 11:10:00,
2013-04-09 07:20:00,49.2,47.3,29.81,SW,231,0.0,1.0,93,0.00,,,0.00,VWS V14.01,2013-04-09 11:20:00,
2013-04-09 07:30:00,49.4,47.5,29.81,SW,214,0.0,3.0,93,0.00,,,0.00,VWS V14.01,2013-04-09 11:30:00,
2013-04-09 07:40:00,49.7,47.5,29.81,WNW,300,1.0,3.0,92,0.00,,,0.00,VWS V14.01,2013-04-09 11:40:00,
2013-04-09 07:50:00,50.0,47.8,29.81,ENE,57,2.0,3.0,92,0.00,,,0.00,VWS V14.01,2013-04-09 11:50:00,
2013-04-09 08:00:00,50.4,47.9,29.81,NNE,23,0.0,2.0,91,0.00,,,0.00,VWS V14.01,2013-04-09 12:00:00,
2013-04-09 08:10:00,51.0,48.5,29.81,WSW,250,1.0,5.0,91,0.00,,,0.00,VWS V14.01,2013-04-09 12:10:00,
2013-04-09 08:20:00,51.7,48.9,29.81,West,259,2.0,2.0,90,0.00,,,0.00,VWS V14.01,2013-04-09 12:20:00,
2013-04-09 08:30:00,52.4,49.3,29.81,West,259,0.0,3.0,89,0.00,,,0.00,VWS V14.01,2013-04-09 12:30:00,
2013-04-09 08:40:00,53.1,49.7,29.81,NNW,336,0.0,3.0,88,0.00,,,0.00,VWS V14.01,2013-04-09 12:40:00,
2013-04-09 08:50:00,53.9,49.8,29.80,West,263,2.0,3.0,86,0.00,,,0.00,VWS V14.01,2013-04-09 12:50:00,
2013-04-09 09:00:00,55.1,50.4,29.80,SE,134,1.0,5.0,84,0.00,,,0.00,VWS V14.01,2013-04-09 13:00:00,
2013-04-09 09:10:00,56.0,50.6,29.80,WSW,242,1.0,5.0,82,0.00,,,0.00,VWS V14.01,2013-04-09 13:10:00,
2013-04-09 09:20:00,56.9,50.8,29.80,WNW,300,3.0,5.0,80,0.00,,,0.00,VWS V14.01,2013-04-09 13:20:00,
2013-04-09 09:30:00,58.0,51.9,29.80,WSW,254,2.0,4.0,80,0.00,,,0.00,VWS V14.01,2013-04-09 13:30:00,
2013-04-09 09:40:00,59.0,51.8,29.80,West,267,1.0,4.0,77,0.00,,,0.00,VWS V14.01,2013-04-09 13:40:00,
2013-04-09 09:50:00,59.6,51.7,29.80,South,169,2.0,3.0,75,0.00,,,0.00,VWS V14.01,2013-04-09 13:50:00,
2013-04-09 10:00:00,60.4,52.5,29.79,WNW,294,1.0,3.0,75,0.00,,,0.00,VWS V14.01,2013-04-09 14:00:00,
2013-04-09 10:10:00,61.6,52.5,29.79,NE,50,1.0,3.0,72,0.00,,,0.00,VWS V14.01,2013-04-09 14:10:00,
2013-04-09 10:20:00,62.4,52.5,29.79,West,275,2.0,4.0,70,0.00,,,0.00,VWS V14.01,2013-04-09 14:20:00,
2013-04-09 10:30:00,63.1,53.2,29.79,WNW,301,2.0,4.0,70,0.00,,,0.00,VWS V14.01,2013-04-09 14:30:00,
2013-04-09 10:40:00,63.6,52.9,29.79,WNW,300,1.0,3.0,68,0.00,,,0.00,VWS V14.01,2013-04-09 14:40:00,
2013-04-09 10:50:00,64.3,52.7,29.79,SW,236,1.0,6.0,66,0.00,,,0.00,VWS V14.01,2013-04-09 14:50:00,
2013-04-09 11:00:00,66.4,53.4,29.79,WSW,255,3.0,5.0,63,0.00,,,0.00,VWS V14.01,2013-04-09 15:00:00,
2013-04-09 11:10:00,70.6,48.8,29.79,WSW,248,7.0,19.0,46,0.00,,,0.00,VWS V14.01,2013-04-09 15:10:00,
2013-04-09 11:20:00,73.2,48.8,29.79,WNW,292,2.0,18.0,42,0.00,,,0.00,VWS V14.01,2013-04-09 15:20:00,
2013-04-09 11:30:00,74.1,48.9,29.79,WSW,244,4.0,20.0,41,0.00,,,0.00,VWS V14.01,2013-04-09 15:30:00,
2013-04-09 11:40:00,74.5,49.3,29.79,West,272,4.0,19.0,41,0.00,,,0.00,VWS V14.01,2013-04-09 15:40:00,
2013-04-09 11:50:00,75.0,48.4,29.78,SSW,211,10.0,24.0,39,0.00,,,0.00,VWS V14.01,2013-04-09 15:50:00,
2013-04-09 12:00:00,75.4,48.0,29.78,West,278,5.0,19.0,38,0.00,,,0.00,VWS V14.01,2013-04-09 16:00:00,
2013-04-09 12:10:00,75.6,48.2,29.78,WSW,240,6.0,22.0,38,0.00,,,0.00,VWS V14.01,2013-04-09 16:10:00,
2013-04-09 12:20:00,75.8,47.7,29.78,WSW,248,5.0,21.0,37,0.00,,,0.00,VWS V14.01,2013-04-09 16:20:00,
2013-04-09 12:30:00,75.9,47.1,29.78,West,264,3.0,20.0,36,0.00,,,0.00,VWS V14.01,2013-04-09 16:30:00,
2013-04-09 12:40:00,76.1,48.7,29.78,SW,236,5.0,18.0,38,0.00,,,0.00,VWS V14.01,2013-04-09 16:40:00,
2013-04-09 12:50:00,76.8,47.8,29.77,SW,215,8.0,21.0,36,0.00,,,0.00,VWS V14.01,2013-04-09 16:50:00,
2013-04-09 13:00:00,76.8,46.3,29.78,SSW,209,10.0,22.0,34,0.00,,,0.00,VWS V14.01,2013-04-09 17:00:00,
2013-04-09 13:10:00,76.6,46.2,29.78,SSW,200,16.0,22.0,34,0.00,,,0.00,VWS V14.01,2013-04-09 17:10:00,
2013-04-09 13:20:00,77.0,46.5,29.77,SW,229,5.0,16.0,34,0.00,,,0.00,VWS V14.01,2013-04-09 17:20:00,
2013-04-09 13:30:00,77.5,46.2,29.77,WSW,238,5.0,16.0,33,0.00,,,0.00,VWS V14.01,2013-04-09 17:30:00,
2013-04-09 13:40:00,77.2,45.9,29.77,SSW,206,2.0,24.0,33,0.00,,,0.00,VWS V14.01,2013-04-09 17:40:00,
2013-04-09 13:50:00,77.5,44.5,29.78,SSW,198,10.0,27.0,31,0.00,,,0.00,VWS V14.01,2013-04-09 17:50:00,
2013-04-09 14:00:00,77.8,44.8,29.78,SW,231,4.0,21.0,31,0.00,,,0.00,VWS V14.01,2013-04-09 18:00:00,
2013-04-09 14:10:00,78.0,44.1,29.78,SW,215,6.0,19.0,30,0.00,,,0.00,VWS V14.01,2013-04-09 18:10:00,
2013-04-09 14:20:00,78.4,44.4,29.78,SW,215,10.0,16.0,30,0.00,,,0.00,VWS V14.01,2013-04-09 18:20:00,
2013-04-09 14:30:00,78.8,43.0,29.78,SSW,196,8.0,17.0,28,0.00,,,0.00,VWS V14.01,2013-04-09 18:30:00,
2013-04-09 14:40:00,78.9,44.0,29.78,NNE,32,2.0,19.0,29,0.00,,,0.00,VWS V14.01,2013-04-09 18:40:00,
2013-04-09 14:50:00,79.4,44.4,29.78,West,281,5.0,22.0,29,0.00,,,0.00,VWS V14.01,2013-04-09 18:50:00,
2013-04-09 15:00:00,79.5,43.6,29.78,WSW,240,2.0,14.0,28,0.00,,,0.00,VWS V14.01,2013-04-09 19:00:00,
2013-04-09 15:10:00,79.3,45.2,29.78,ESE,119,3.0,23.0,30,0.00,,,0.00,VWS V14.01,2013-04-09 19:10:00,
2013-04-09 15:20:00,79.5,43.6,29.78,SSW,205,4.0,15.0,28,0.00,,,0.00,VWS V14.01,2013-04-09 19:20:00,
2013-04-09 15:30:00,79.1,41.3,29.78,SSW,200,3.0,14.0,26,0.00,,,0.00,VWS V14.01,2013-04-09 19:30:00,
2013-04-09 15:40:00,79.0,41.2,29.78,SW,217,5.0,15.0,26,0.00,,,0.00,VWS V14.01,2013-04-09 19:40:00,
2013-04-09 15:50:00,79.4,40.5,29.78,SSW,205,5.0,13.0,25,0.00,,,0.00,VWS V14.01,2013-04-09 19:50:00,
2013-04-09 16:00:00,79.7,40.8,29.78,SSW,206,3.0,13.0,25,0.00,,,0.00,VWS V14.01,2013-04-09 20:00:00,
2013-04-09 16:10:00,79.5,39.6,29.78,WNW,298,3.0,19.0,24,0.00,,,0.00,VWS V14.01,2013-04-09 20:10:00,
2013-04-09 16:20:00,79.2,41.4,29.78,South,184,4.0,13.0,26,0.00,,,0.00,VWS V14.01,2013-04-09 20:20:00,
2013-04-09 16:30:00,79.4,40.5,29.78,SSW,213,1.0,9.0,25,0.00,,,0.00,VWS V14.01,2013-04-09 20:30:00,
2013-04-09 16:40:00,80.1,42.2,29.78,SW,232,1.0,12.0,26,0.00,,,0.00,VWS V14.01,2013-04-09 20:40:00,
2013-04-09 16:50:00,80.2,40.2,29.78,SSW,198,6.0,12.0,24,0.00,,,0.00,VWS V14.01,2013-04-09 20:50:00,
2013-04-09 17:00:00,80.1,40.1,29.78,SSW,209,3.0,10.0,24,0.00,,,0.00,VWS V14.01,2013-04-09 21:00:00,
2013-04-09 17:10:00,80.2,39.1,29.78,SW,236,5.0,12.0,23,0.00,,,0.00,VWS V14.01,2013-04-09 21:10:00,
2013-04-09 17:20:00,80.4,41.4,29.78,South,180,3.0,10.0,25,0.00,,,0.00,VWS V14.01,2013-04-09 21:20:00,
2013-04-09 17:30:00,80.9,40.8,29.78,NNE,20,1.0,7.0,24,0.00,,,0.00,VWS V14.01,2013-04-09 21:30:00,
2013-04-09 17:40:00,80.7,39.5,29.78,SSW,194,4.0,6.0,23,0.00,,,0.00,VWS V14.01,2013-04-09 21:40:00,
2013-04-09 17:50:00,80.2,39.1,29.80,SSW,213,2.0,11.0,23,0.00,,,0.00,VWS V14.01,2013-04-09 21:50:00,
2013-04-09 18:00:00,79.3,40.5,29.81,WSW,240,1.0,10.0,25,0.00,,,0.00,VWS V14.01,2013-04-09 22:00:00,
2013-04-09 18:10:00,79.3,39.4,29.81,SSW,211,3.0,9.0,24,0.00,,,0.00,VWS V14.01,2013-04-09 22:10:00,
2013-04-09 18:20:00,78.7,38.9,29.81,SSW,193,6.0,9.0,24,0.00,,,0.00,VWS V14.01,2013-04-09 22:20:00,
2013-04-09 18:30:00,77.7,39.1,29.81,SSE,167,0.0,10.0,25,0.00,,,0.00,VWS V14.01,2013-04-09 22:30:00,
2013-04-09 18:40:00,76.8,40.3,29.81,SSW,207,0.0,5.0,27,0.00,,,0.00,VWS V14.01,2013-04-09 22:40:00,
2013-04-09 18:50:00,75.6,41.1,29.81,SSW,207,0.0,3.0,29,0.00,,,0.00,VWS V14.01,2013-04-09 22:50:00,
2013-04-09 19:00:00,74.5,40.2,29.81,SSW,207,0.0,2.0,29,0.00,,,0.00,VWS V14.01,2013-04-09 23:00:00,
2013-04-09 19:10:00,73.4,41.8,29.81,SSW,207,0.0,1.0,32,0.00,,,0.00,VWS V14.01,2013-04-09 23:10:00,
2013-04-09 19:20:00,72.4,41.7,29.81,SSW,207,0.0,0.0,33,0.00,,,0.00,VWS V14.01,2013-04-09 23:20:00,
2013-04-09 19:30:00,71.2,42.2,29.81,SSW,207,0.0,0.0,35,0.00,,,0.00,VWS V14.01,2013-04-09 23:30:00,
2013-04-09 19:40:00,68.7,40.7,29.81,SSW,207,0.0,1.0,36,0.00,,,0.00,VWS V14.01,2013-04-09 23:40:00,
2013-04-09 19:50:00,65.6,40.0,29.82,SSW,207,1.0,1.0,39,0.00,,,0.00,VWS V14.01,2013-04-09 23:50:00,
2013-04-09 20:00:00,63.9,40.4,29.82,SSW,207,0.0,1.0,42,0.00,,,0.00,VWS V14.01,2013-04-10 00:00:00,
2013-04-09 20:10:00,63.0,41.9,29.82,SSW,207,0.0,2.0,46,0.00,,,0.00,VWS V14.01,2013-04-10 00:10:00,
2013-04-09 20:20:00,62.1,41.1,29.83,SSW,207,0.0,1.0,46,0.00,,,0.00,VWS V14.01,2013-04-10 00:20:00,
2013-04-09 20:30:00,61.6,40.1,29.84,SSW,207,0.0,1.0,45,0.00,,,0.00,VWS V14.01,2013-04-10 00:30:00,
2013-04-09 20:40:00,61.5,42.2,29.84,SSW,207,0.0,0.0,49,0.00,,,0.00,VWS V14.01,2013-04-10 00:40:00,
2013-04-09 20:50:00,61.2,41.9,29.84,SSW,207,0.0,0.0,49,0.00,,,0.00,VWS V14.01,2013-04-10 00:50:00,
2013-04-09 21:00:00,61.0,42.2,29.84,SSW,207,0.0,0.0,50,0.00,,,0.00,VWS V14.01,2013-04-10 01:00:00,
2013-04-09 21:10:00,60.9,41.6,29.84,SSW,207,0.0,0.0,49,0.00,,,0.00,VWS V14.01,2013-04-10 01:10:00,
2013-04-09 21:20:00,60.4,40.6,29.84,SSW,207,0.0,0.0,48,0.00,,,0.00,VWS V14.01,2013-04-10 01:20:00,
2013-04-09 21:30:00,59.7,41.6,29.85,SSW,207,0.0,2.0,51,0.00,,,0.00,VWS V14.01,2013-04-10 01:30:00,
2013-04-09 21:40:00,58.6,41.5,29.85,SSW,207,0.0,1.0,53,0.00,,,0.00,VWS V14.01,2013-04-10 01:40:00,
2013-04-09 21:50:00,57.9,41.8,29.84,SSW,207,0.0,1.0,55,0.00,,,0.00,VWS V14.01,2013-04-10 01:50:00,
2013-04-09 22:00:00,56.8,42.2,29.85,SSW,207,0.0,1.0,58,0.00,,,0.00,VWS V14.01,2013-04-10 02:00:00,
2013-04-09 22:10:00,56.0,42.8,29.85,SSW,207,0.0,1.0,61,0.00,,,0.00,VWS V14.01,2013-04-10 02:10:00,
2013-04-09 22:20:00,55.1,41.9,29.85,SSW,207,0.0,0.0,61,0.00,,,0.00,VWS V14.01,2013-04-10 02:20:00,
2013-04-09 22:30:00,54.9,43.0,29.84,SSW,207,0.0,1.0,64,0.00,,,0.00,VWS V14.01,2013-04-10 02:30:00,
2013-04-09 22:40:00,54.6,42.7,29.84,SSW,207,0.0,1.0,64,0.00,,,0.00,VWS V14.01,2013-04-10 02:40:00,
2013-04-09 22:50:00,54.4,42.1,29.84,SSW,207,0.0,1.0,63,0.00,,,0.00,VWS V14.01,2013-04-10 02:50:00,
2013-04-09 23:00:00,54.3,43.2,29.83,SSW,207,0.0,1.0,66,0.00,,,0.00,VWS V14.01,2013-04-10 03:00:00,
2013-04-09 23:10:00,54.2,43.5,29.83,SSW,207,0.0,1.0,67,0.00,,,0.00,VWS V14.01,2013-04-10 03:10:00,
2013-04-09 23:20:00,54.1,44.5,29.81,SSW,207,0.0,2.0,70,0.00,,,0.00,VWS V14.01,2013-04-10 03:20:00,
2013-04-09 23:30:00,54.0,43.7,29.78,SSW,207,0.0,1.0,68,0.00,,,0.00,VWS V14.01,2013-04-10 03:30:00,
2013-04-09 23:40:00,53.7,43.8,29.78,SSW,207,0.0,0.0,69,0.00,,,0.00,VWS V14.01,2013-04-10 03:40:00,
2013-04-09 23:50:00,52.9,43.0,29.78,SSW,207,1.0,1.0,69,0.00,,,0.00,VWS V14.01,2013-04-10 03:50:00,